createdAt,value
2023-01-19T00:01:43.508Z,5.98
2023-01-19T00:04:11.895Z,5.94
2023-01-19T00:06:40.270Z,5.89
2023-01-19T00:09:08.658Z,5.88
2023-01-19T00:11:36.873Z,5.91
2023-01-19T00:14:05.335Z,5.95
2023-01-19T00:16:34.250Z,5.98
2023-01-19T00:19:02.795Z,6.00
2023-01-19T00:21:31.367Z,6.03
2023-01-19T00:23:59.817Z,6.05
2023-01-19T00:26:28.230Z,6.08
2023-01-19T00:28:56.686Z,6.13
2023-01-19T00:31:25.073Z,6.17
2023-01-19T00:33:53.540Z,6.22
2023-01-19T00:36:22.431Z,6.26
2023-01-19T00:38:50.754Z,6.30
2023-01-19T00:41:19.442Z,6.36
2023-01-19T00:43:47.713Z,6.39
2023-01-19T00:46:16.152Z,6.41
2023-01-19T00:48:45.271Z,6.43
2023-01-19T00:51:13.829Z,6.42
2023-01-19T00:53:42.036Z,6.40
2023-01-19T00:56:10.550Z,6.39
2023-01-19T00:58:38.932Z,6.38
2023-01-19T01:01:08.374Z,6.38
2023-01-19T01:03:37.112Z,6.39
2023-01-19T01:06:08.521Z,6.39
2023-01-19T01:08:36.833Z,6.38
2023-01-19T01:11:05.380Z,6.37
2023-01-19T01:13:33.915Z,6.36
2023-01-19T01:16:02.292Z,6.37
2023-01-19T01:18:30.559Z,6.37
2023-01-19T01:21:06.603Z,6.37
2023-01-19T01:23:35.559Z,6.38
2023-01-19T01:26:03.699Z,6.36
2023-01-19T01:28:32.475Z,6.35
2023-01-19T01:31:00.732Z,6.34
2023-01-19T01:33:40.404Z,6.35
2023-01-19T01:36:12.103Z,6.36
2023-01-19T01:38:41.689Z,6.35
2023-01-19T01:41:10.329Z,6.33
2023-01-19T01:43:50.580Z,6.30
2023-01-19T01:46:20.083Z,6.25
2023-01-19T01:48:58.513Z,6.21
2023-01-19T01:51:51.182Z,6.18
2023-01-19T01:54:33.995Z,6.18
2023-01-19T01:57:12.430Z,6.19
2023-01-19T01:59:46.149Z,6.20
2023-01-19T02:02:39.336Z,6.21
2023-01-19T02:05:11.665Z,6.23
2023-01-19T02:08:39.228Z,6.24
2023-01-19T02:11:27.768Z,6.26
2023-01-19T02:13:56.380Z,6.29
2023-01-19T02:16:24.928Z,6.31
2023-01-19T02:18:53.747Z,6.31
2023-01-19T02:21:47.252Z,6.28
2023-01-19T02:24:16.088Z,6.21
2023-01-19T02:26:47.526Z,6.14
2023-01-19T02:29:21.691Z,6.04
2023-01-19T02:31:50.020Z,5.96
2023-01-19T02:34:21.089Z,5.93
2023-01-19T02:37:12.322Z,5.89
2023-01-19T02:39:58.615Z,5.86
2023-01-19T02:42:58.609Z,5.84
2023-01-19T02:45:28.275Z,5.82
2023-01-19T02:47:57.638Z,5.81
2023-01-19T02:50:37.407Z,5.80
2023-01-19T02:53:33.646Z,5.81
2023-01-19T02:56:45.997Z,5.81
2023-01-19T02:59:27.244Z,5.78
2023-01-19T03:02:22.309Z,5.79
2023-01-19T03:05:11.085Z,5.80
2023-01-19T03:07:57.008Z,5.78
2023-01-19T03:10:31.395Z,5.70
2023-01-19T03:13:11.908Z,5.63
2023-01-19T03:15:43.012Z,5.61
2023-01-19T03:18:15.181Z,5.60
2023-01-19T03:20:45.475Z,5.58
2023-01-19T03:23:15.619Z,5.57
2023-01-19T03:25:46.700Z,5.57
2023-01-19T03:28:19.623Z,5.55
2023-01-19T03:30:54.976Z,5.52
2023-01-19T03:33:28.847Z,5.46
2023-01-19T03:36:06.350Z,5.41
2023-01-19T03:38:38.403Z,5.36
2023-01-19T03:41:15.881Z,5.34
2023-01-19T03:43:47.248Z,5.32
2023-01-19T03:46:17.731Z,5.33
2023-01-19T03:48:46.956Z,5.35
2023-01-19T03:51:17.254Z,5.38
2023-01-19T03:53:47.384Z,5.39
2023-01-19T03:56:22.665Z,5.41
2023-01-19T03:58:51.087Z,5.47
2023-01-19T04:01:23.762Z,5.50
2023-01-19T04:03:53.883Z,5.53
2023-01-19T04:06:23.072Z,5.54
2023-01-19T04:08:52.215Z,5.56
2023-01-19T04:11:20.984Z,5.57
2023-01-19T04:13:50.040Z,5.60
2023-01-19T04:16:20.726Z,5.61
2023-01-19T04:18:50.365Z,5.62
2023-01-19T04:21:20.574Z,5.63
2023-01-19T04:23:50.273Z,5.62
2023-01-19T04:26:19.428Z,5.60
2023-01-19T04:28:47.942Z,5.56
2023-01-19T04:31:16.939Z,5.49
2023-01-19T04:33:45.181Z,5.39
2023-01-19T04:36:16.799Z,5.30
2023-01-19T04:38:48.970Z,5.25
2023-01-19T04:41:17.270Z,5.24
2023-01-19T04:43:45.533Z,5.25
2023-01-19T04:46:16.792Z,5.28
2023-01-19T04:48:44.979Z,5.31
2023-01-19T04:51:13.370Z,5.34
2023-01-19T04:53:42.005Z,5.39
2023-01-19T04:56:10.341Z,5.46
2023-01-19T04:58:38.938Z,5.52
2023-01-19T05:01:09.944Z,5.57
2023-01-19T05:03:38.464Z,5.59
2023-01-19T05:06:07.229Z,5.61
2023-01-19T05:08:35.531Z,5.62
2023-01-19T05:11:04.122Z,5.62
2023-01-19T05:13:33.670Z,5.64
2023-01-19T05:16:02.221Z,5.64
2023-01-19T05:18:36.419Z,5.65
2023-01-19T05:21:06.248Z,5.68
2023-01-19T05:23:35.087Z,5.74
2023-01-19T05:26:05.148Z,5.80
2023-01-19T05:28:34.105Z,5.87
2023-01-19T05:31:02.571Z,5.92
2023-01-19T05:33:31.491Z,6.00
2023-01-19T05:36:00.710Z,6.07
2023-01-19T05:38:34.936Z,6.16
2023-01-19T05:41:04.299Z,6.25
2023-01-19T05:43:32.778Z,6.34
2023-01-19T05:46:05.008Z,6.45
2023-01-19T05:48:33.434Z,6.52
2023-01-19T05:51:02.452Z,6.56
2023-01-19T05:53:31.914Z,6.59
2023-01-19T05:56:06.155Z,6.59
2023-01-19T05:58:39.760Z,6.49
2023-01-19T06:01:11.002Z,6.47
2023-01-19T06:03:40.430Z,6.45
2023-01-19T06:06:10.467Z,6.42
2023-01-19T06:08:39.076Z,6.37
2023-01-19T06:11:08.047Z,6.34
2023-01-19T06:13:36.268Z,6.30
2023-01-19T06:16:05.053Z,6.25
2023-01-19T06:18:34.106Z,6.23
2023-01-19T06:21:10.553Z,6.21
2023-01-19T06:23:40.172Z,6.24
2023-01-19T06:26:09.055Z,6.26
2023-01-19T06:28:38.065Z,6.28
2023-01-19T06:31:06.614Z,6.32
2023-01-19T06:33:35.353Z,6.36
2023-01-19T06:36:04.081Z,6.41
2023-01-19T06:38:33.234Z,6.47
2023-01-19T06:41:05.150Z,6.52
2023-01-19T06:43:33.694Z,6.56
2023-01-19T06:46:02.490Z,6.59
2023-01-19T06:48:31.148Z,6.60
2023-01-19T06:51:00.068Z,6.57
2023-01-19T06:53:30.393Z,6.50
2023-01-19T06:56:04.361Z,6.51
2023-01-19T06:58:35.383Z,6.53
2023-01-19T07:01:08.252Z,6.53
2023-01-19T07:03:39.005Z,6.54
2023-01-19T07:06:08.191Z,6.56
2023-01-19T07:08:38.640Z,6.61
2023-01-19T07:11:24.772Z,6.64
2023-01-19T07:13:57.850Z,6.66
2023-01-19T07:16:26.976Z,6.68
2023-01-19T07:18:56.023Z,6.68
2023-01-19T07:21:24.507Z,6.67
2023-01-19T07:23:53.593Z,6.66
2023-01-19T07:26:25.265Z,6.67
2023-01-19T07:32:16.076Z,6.67
2023-01-19T07:34:44.841Z,6.70
2023-01-19T07:37:14.340Z,6.73
2023-01-19T07:39:43.180Z,6.79
2023-01-19T07:42:11.641Z,6.87
2023-01-19T07:44:40.651Z,6.95
2023-01-19T07:47:12.820Z,7.01
2023-01-19T07:49:42.063Z,7.06
2023-01-19T07:52:11.389Z,7.04
2023-01-19T07:54:41.652Z,7.16
2023-01-19T07:57:10.384Z,7.24
2023-01-19T07:59:38.883Z,7.32
2023-01-19T08:02:10.610Z,7.38
2023-01-19T08:04:39.385Z,7.45
2023-01-19T08:07:07.968Z,7.54
2023-01-19T08:09:36.987Z,7.61
2023-01-19T08:12:06.781Z,7.67
2023-01-19T08:14:36.456Z,7.71
2023-01-19T08:17:06.271Z,7.78
2023-01-19T08:19:35.752Z,7.85
2023-01-19T08:22:06.483Z,7.93
2023-01-19T08:24:35.975Z,8.03
2023-01-19T08:27:04.791Z,8.14
2023-01-19T08:29:34.973Z,8.24
2023-01-19T08:32:05.459Z,8.31
2023-01-19T08:34:35.314Z,8.40
2023-01-19T08:37:04.949Z,8.51
2023-01-19T08:39:34.700Z,8.62
2023-01-19T08:42:05.134Z,8.73
2023-01-19T08:44:34.299Z,8.83
2023-01-19T08:47:03.602Z,8.92
2023-01-19T08:49:32.803Z,8.98
2023-01-19T08:52:03.509Z,9.00
2023-01-19T08:54:31.978Z,9.04
2023-01-19T08:57:01.033Z,9.08
2023-01-19T08:59:30.115Z,9.08
2023-01-19T09:01:59.177Z,9.11
2023-01-19T09:04:28.274Z,9.17
2023-01-19T09:06:57.324Z,9.24
2023-01-19T09:09:27.863Z,9.32
2023-01-19T09:11:58.148Z,9.38
2023-01-19T09:14:28.165Z,9.45
2023-01-19T09:16:57.016Z,9.55
2023-01-19T09:19:26.779Z,9.63
2023-01-19T09:21:56.279Z,9.70
2023-01-19T09:24:25.418Z,9.78
2023-01-19T09:26:53.833Z,9.85
2023-01-19T09:29:22.947Z,9.95
2023-01-19T09:31:52.265Z,10.08
2023-01-19T09:34:23.077Z,10.18
2023-01-19T09:36:55.176Z,10.28
2023-01-19T09:39:24.634Z,10.36
2023-01-19T09:42:21.406Z,10.43
2023-01-19T09:44:53.603Z,10.44
2023-01-19T09:47:31.606Z,10.46
2023-01-19T09:50:11.274Z,10.47
2023-01-19T09:52:44.023Z,10.52
2023-01-19T09:55:25.893Z,10.55
2023-01-19T09:57:55.535Z,10.63
2023-01-19T10:00:25.612Z,10.77
2023-01-19T10:03:02.944Z,10.86
2023-01-19T10:05:31.589Z,10.91
2023-01-19T10:08:34.519Z,10.95
2023-01-19T10:11:06.545Z,10.94
2023-01-19T10:13:55.572Z,10.91
2023-01-19T10:16:53.599Z,10.87
2023-01-19T10:19:34.232Z,10.84
2023-01-19T10:22:13.836Z,10.82
2023-01-19T10:24:44.667Z,10.79
2023-01-19T10:27:18.136Z,10.81
2023-01-19T10:29:47.180Z,10.83
2023-01-19T10:32:36.132Z,10.86
2023-01-19T10:35:25.397Z,10.86
2023-01-19T10:38:00.905Z,10.88
2023-01-19T10:40:58.992Z,10.95
2023-01-19T10:43:37.868Z,11.00
2023-01-19T10:46:08.122Z,11.11
2023-01-19T10:48:40.241Z,11.21
2023-01-19T10:51:10.873Z,11.32
2023-01-19T10:53:40.920Z,11.41
2023-01-19T10:56:14.968Z,11.47
2023-01-19T10:58:43.646Z,11.47
2023-01-19T11:01:27.571Z,11.45
2023-01-19T11:04:04.148Z,11.42
2023-01-19T11:06:34.646Z,11.41
2023-01-19T11:09:16.006Z,11.42
2023-01-19T11:11:53.300Z,11.39
2023-01-19T11:14:26.781Z,11.41
2023-01-19T11:16:58.003Z,11.49
2023-01-19T11:19:30.350Z,11.61
2023-01-19T11:22:23.244Z,11.74
2023-01-19T11:24:52.319Z,11.82
2023-01-19T11:27:21.536Z,11.87
2023-01-19T11:30:02.005Z,11.85
2023-01-19T11:32:33.569Z,11.91
2023-01-19T11:35:23.763Z,11.97
2023-01-19T11:38:10.734Z,12.02
2023-01-19T11:40:41.368Z,12.15
2023-01-19T11:43:13.910Z,12.27
2023-01-19T11:45:44.675Z,12.38
2023-01-19T11:48:22.878Z,12.47
2023-01-19T11:50:51.069Z,12.53
2023-01-19T11:53:25.243Z,12.57
2023-01-19T11:55:57.464Z,12.64
2023-01-19T11:58:34.226Z,12.71
2023-01-19T12:01:25.045Z,12.75
2023-01-19T12:04:26.409Z,12.79
2023-01-19T12:06:57.952Z,12.78
2023-01-19T12:09:59.419Z,12.77
2023-01-19T12:12:32.705Z,12.77
2023-01-19T12:15:23.335Z,12.76
2023-01-19T12:17:58.320Z,12.77
2023-01-19T12:20:34.419Z,12.77
2023-01-19T12:23:20.809Z,12.71
2023-01-19T12:26:04.852Z,12.70
2023-01-19T12:28:40.188Z,12.68
2023-01-19T12:31:09.401Z,12.68
2023-01-19T12:33:39.410Z,12.73
2023-01-19T12:36:17.207Z,12.76
2023-01-19T12:38:48.668Z,12.79
2023-01-19T12:41:20.057Z,12.83
2023-01-19T12:44:12.652Z,12.93
2023-01-19T12:47:06.648Z,13.06
2023-01-19T12:49:38.178Z,13.21
2023-01-19T12:52:20.896Z,13.32
2023-01-19T12:55:02.886Z,13.42
2023-01-19T12:57:46.801Z,13.50
2023-01-19T13:00:24.653Z,13.52
2023-01-19T13:03:16.911Z,13.54
2023-01-19T13:05:53.136Z,13.52
2023-01-19T13:08:49.508Z,13.48
2023-01-19T13:11:20.080Z,13.42
2023-01-19T13:13:48.383Z,13.37
2023-01-19T13:16:20.174Z,13.34
2023-01-19T13:19:02.330Z,13.29
2023-01-19T13:21:40.123Z,13.25
2023-01-19T13:24:24.708Z,13.18
2023-01-19T13:26:57.939Z,13.16
2023-01-19T13:29:36.887Z,13.12
2023-01-19T13:32:13.922Z,13.06
2023-01-19T13:35:03.865Z,13.05
2023-01-19T13:37:41.904Z,13.02
2023-01-19T13:40:22.592Z,12.99
2023-01-19T13:42:54.587Z,12.99
2023-01-19T13:45:33.551Z,12.98
2023-01-19T13:48:07.293Z,12.94
2023-01-19T13:50:39.603Z,12.88
2023-01-19T13:53:21.023Z,12.86
2023-01-19T13:56:06.456Z,12.81
2023-01-19T13:58:35.707Z,12.72
2023-01-19T14:01:04.164Z,12.69
2023-01-19T14:03:33.177Z,12.64
2023-01-19T14:06:02.418Z,12.59
2023-01-19T14:08:32.998Z,12.58
2023-01-19T14:11:02.965Z,12.53
2023-01-19T14:13:34.151Z,12.51
2023-01-19T14:16:11.453Z,12.48
2023-01-19T14:18:39.975Z,12.46
2023-01-19T14:21:11.635Z,12.39
2023-01-19T14:23:58.296Z,12.29
2023-01-19T14:26:46.519Z,12.23
2023-01-19T14:29:32.770Z,12.17
2023-01-19T14:32:02.261Z,12.10
2023-01-19T14:34:46.976Z,12.04
2023-01-19T14:37:28.434Z,11.96
2023-01-19T14:40:05.229Z,11.88
2023-01-19T14:42:44.725Z,11.81
2023-01-19T14:45:34.699Z,11.77
2023-01-19T14:48:12.427Z,11.74
2023-01-19T14:50:57.548Z,11.70
2023-01-19T14:53:37.810Z,11.65
2023-01-19T14:56:07.710Z,11.62
2023-01-19T14:58:36.383Z,11.59
2023-01-19T15:01:06.583Z,11.55
2023-01-19T15:03:44.093Z,11.53
2023-01-19T15:06:24.321Z,11.51
2023-01-19T15:08:55.985Z,11.50
2023-01-19T15:11:33.131Z,11.47
2023-01-19T15:14:03.045Z,11.48
2023-01-19T15:16:33.371Z,11.48
2023-01-19T15:19:02.071Z,11.47
2023-01-19T15:21:30.878Z,11.46
2023-01-19T15:24:00.618Z,11.44
2023-01-19T15:26:29.594Z,11.42
2023-01-19T15:28:58.183Z,11.41
2023-01-19T15:31:27.048Z,11.39
2023-01-19T15:33:55.979Z,11.38
2023-01-19T15:36:24.788Z,11.37
2023-01-19T15:38:53.356Z,11.35
2023-01-19T15:41:27.783Z,11.33
2023-01-19T15:43:57.465Z,11.30
2023-01-19T15:46:27.371Z,11.29
2023-01-19T15:48:56.003Z,11.26
2023-01-19T15:51:26.481Z,11.24
2023-01-19T15:53:56.012Z,11.23
2023-01-19T15:56:27.642Z,11.21
2023-01-19T15:58:56.295Z,11.20
2023-01-19T16:01:35.536Z,11.19
2023-01-19T16:04:07.032Z,11.15
2023-01-19T16:06:35.969Z,11.13
2023-01-19T16:09:05.120Z,11.11
2023-01-19T16:11:37.920Z,11.09
2023-01-19T16:14:05.878Z,11.04
2023-01-19T16:16:33.917Z,10.97
2023-01-19T16:19:02.102Z,10.91
2023-01-19T16:21:30.291Z,10.84
2023-01-19T16:23:58.340Z,10.76
2023-01-19T16:26:34.648Z,10.69
2023-01-19T16:29:09.048Z,10.65
2023-01-19T16:31:39.577Z,10.62
2023-01-19T16:34:09.217Z,10.58
2023-01-19T16:36:40.576Z,10.53
2023-01-19T16:39:12.415Z,10.50
2023-01-19T16:41:41.514Z,10.45
2023-01-19T16:44:12.884Z,10.40
2023-01-19T16:46:44.226Z,10.34
2023-01-19T16:49:18.530Z,10.27
2023-01-19T16:51:48.073Z,10.19
2023-01-19T16:54:26.765Z,10.09
2023-01-19T16:56:56.866Z,9.99
2023-01-19T16:59:27.304Z,9.88
2023-01-19T17:01:56.169Z,9.79
2023-01-19T17:04:24.629Z,9.70
2023-01-19T17:06:53.975Z,9.64
2023-01-19T17:09:22.760Z,9.60
2023-01-19T17:11:51.353Z,9.54
2023-01-19T17:14:21.302Z,9.46
2023-01-19T17:16:50.582Z,9.37
2023-01-19T17:19:22.110Z,9.30
2023-01-19T17:21:50.899Z,9.23
2023-01-19T17:24:19.273Z,9.17
2023-01-19T17:26:48.996Z,9.09
2023-01-19T17:29:18.147Z,9.01
2023-01-19T17:31:50.789Z,8.94
2023-01-19T17:34:19.362Z,8.90
2023-01-19T17:36:50.498Z,8.86
2023-01-19T17:39:19.448Z,8.83
2023-01-19T17:41:50.181Z,8.83
2023-01-19T17:44:18.494Z,8.82
2023-01-19T17:46:47.190Z,8.81
2023-01-19T17:49:15.536Z,8.81
2023-01-19T17:51:44.391Z,8.81
2023-01-19T17:54:14.077Z,8.78
2023-01-19T17:56:42.191Z,8.76
2023-01-19T17:59:10.289Z,8.75
2023-01-19T18:01:40.612Z,8.72
2023-01-19T18:04:09.271Z,8.66
2023-01-19T18:06:38.593Z,8.59
2023-01-19T18:09:07.577Z,8.53
2023-01-19T18:11:35.972Z,8.48
2023-01-19T18:14:05.569Z,8.48
2023-01-19T18:16:33.802Z,8.51
2023-01-19T18:19:02.001Z,8.49
2023-01-19T18:21:30.626Z,8.51
2023-01-19T18:24:04.363Z,8.52
2023-01-19T18:26:34.453Z,8.50
2023-01-19T18:29:02.651Z,8.46
2023-01-19T18:31:31.430Z,8.44
2023-01-19T18:33:59.952Z,8.44
2023-01-19T18:36:28.212Z,8.45
2023-01-19T18:38:56.573Z,8.47
2023-01-19T18:41:24.684Z,8.47
2023-01-19T18:43:58.503Z,8.45
2023-01-19T18:46:27.757Z,8.44
2023-01-19T18:48:56.013Z,8.41
2023-01-19T18:51:24.016Z,8.39
2023-01-19T18:53:52.274Z,8.38
2023-01-19T18:56:20.354Z,8.36
2023-01-19T18:58:48.609Z,8.36
2023-01-19T19:01:20.143Z,8.33
2023-01-19T19:03:48.395Z,8.28
2023-01-19T19:06:19.109Z,8.24
2023-01-19T19:08:52.415Z,8.21
2023-01-19T19:11:22.639Z,8.16
2023-01-19T19:13:57.135Z,8.13
2023-01-19T19:16:26.006Z,8.10
2023-01-19T19:18:54.318Z,8.09
2023-01-19T19:21:25.589Z,8.09
2023-01-19T19:23:56.109Z,8.11
2023-01-19T19:26:26.007Z,8.14
2023-01-19T19:28:54.175Z,8.17
2023-01-19T19:31:25.826Z,8.19
2023-01-19T19:33:55.695Z,8.21
2023-01-19T19:36:25.491Z,8.19
2023-01-19T19:38:54.135Z,8.16
2023-01-19T19:41:27.174Z,8.12
2023-01-19T19:43:56.189Z,8.08
2023-01-19T19:46:26.496Z,8.03
2023-01-19T19:48:55.256Z,7.98
2023-01-19T19:51:28.534Z,7.94
2023-01-19T19:53:59.182Z,7.94
2023-01-19T19:56:29.957Z,7.93
2023-01-19T19:58:59.632Z,7.93
2023-01-19T20:01:32.920Z,7.93
2023-01-19T20:04:07.935Z,7.94
2023-01-19T20:06:39.081Z,7.95
2023-01-19T20:09:10.305Z,7.94
2023-01-19T20:11:39.063Z,7.92
2023-01-19T20:14:09.747Z,7.92
2023-01-19T20:16:38.139Z,7.91
2023-01-19T20:19:06.761Z,7.91
2023-01-19T20:21:37.451Z,7.90
2023-01-19T20:24:08.768Z,7.87
2023-01-19T20:26:41.449Z,7.84
2023-01-19T20:29:11.282Z,7.79
2023-01-19T20:31:55.123Z,7.74
2023-01-19T20:34:26.774Z,7.71
2023-01-19T20:36:55.307Z,7.71
2023-01-19T20:39:24.963Z,7.71
2023-01-19T20:41:54.051Z,7.73
2023-01-19T20:44:25.247Z,7.77
2023-01-19T20:46:54.165Z,7.82
2023-01-19T20:49:22.480Z,7.86
2023-01-19T20:51:52.368Z,7.90
2023-01-19T20:54:24.776Z,7.92
2023-01-19T20:56:53.297Z,7.90
2023-01-19T20:59:22.775Z,7.90
2023-01-19T21:01:52.031Z,7.90
2023-01-19T21:04:20.759Z,7.88
2023-01-19T21:06:49.760Z,7.85
2023-01-19T21:09:18.968Z,7.80
2023-01-19T21:11:47.483Z,7.76
2023-01-19T21:14:15.705Z,7.73
2023-01-19T21:16:44.033Z,7.68
2023-01-19T21:19:12.359Z,7.65
2023-01-19T21:21:40.838Z,7.63
2023-01-19T21:24:10.634Z,7.61
2023-01-19T21:26:38.832Z,7.60
2023-01-19T21:29:10.381Z,7.58
2023-01-19T21:31:39.115Z,7.58
2023-01-19T21:34:07.402Z,7.52
2023-01-19T21:36:35.528Z,7.46
2023-01-19T21:39:05.620Z,7.43
2023-01-19T21:41:35.977Z,7.40
2023-01-19T21:44:04.543Z,7.37
2023-01-19T21:46:34.091Z,7.33
2023-01-19T21:49:05.591Z,7.28
2023-01-19T21:51:36.335Z,7.27
2023-01-19T21:54:06.054Z,7.29
2023-01-19T21:56:35.676Z,7.39
2023-01-19T21:59:05.881Z,7.54
2023-01-19T22:01:35.480Z,7.67
2023-01-19T22:04:04.383Z,7.78
2023-01-19T22:06:32.772Z,7.87
2023-01-19T22:09:01.067Z,7.82
2023-01-19T22:11:29.386Z,7.68
2023-01-19T22:14:00.073Z,7.62
2023-01-19T22:16:29.626Z,7.59
2023-01-19T22:19:01.299Z,7.54
2023-01-19T22:21:35.971Z,7.51
2023-01-19T22:24:05.005Z,7.43
2023-01-19T22:26:34.779Z,7.31
2023-01-19T22:29:04.848Z,7.25
2023-01-19T22:31:33.158Z,7.19
2023-01-19T22:34:01.560Z,7.14
2023-01-19T22:36:34.191Z,7.12
2023-01-19T22:39:08.728Z,7.09
2023-01-19T22:41:42.759Z,7.06
2023-01-19T22:44:16.748Z,7.06
2023-01-19T22:46:49.750Z,7.04
2023-01-19T22:49:19.354Z,7.02
2023-01-19T22:51:48.290Z,6.99
2023-01-19T22:54:17.067Z,6.95
2023-01-19T22:56:46.016Z,6.90
2023-01-19T22:59:14.270Z,6.82
2023-01-19T23:01:44.037Z,6.71
2023-01-19T23:04:14.595Z,6.60
2023-01-19T23:06:43.818Z,6.53
2023-01-19T23:09:14.554Z,6.49
2023-01-19T23:11:45.385Z,6.44
2023-01-19T23:14:16.428Z,6.42
2023-01-19T23:16:44.642Z,6.42
2023-01-19T23:19:13.902Z,6.44
2023-01-19T23:21:42.105Z,6.47
2023-01-19T23:24:10.492Z,6.52
2023-01-19T23:26:39.184Z,6.56
2023-01-19T23:29:12.403Z,6.59
2023-01-19T23:31:45.007Z,6.61
2023-01-19T23:34:14.325Z,6.60
2023-01-19T23:36:43.319Z,6.53
2023-01-19T23:39:20.914Z,6.49
2023-01-19T23:41:50.608Z,6.45
2023-01-19T23:44:18.900Z,6.43
2023-01-19T23:46:47.423Z,6.43
2023-01-19T23:49:16.044Z,6.44
2023-01-19T23:51:44.759Z,6.45
2023-01-19T23:54:12.954Z,6.49
2023-01-19T23:56:42.964Z,6.51
2023-01-19T23:59:14.464Z,6.48
